Time;durP1;ratioP1;P1;durP2;ratioP2;P2;SDS_P1;SDS_P2;PMS_P1;PMS_P2;Temp;Humidity;BMP_temperature;BMP_pressure;BME280_temperature;BME280_humidity;BME280_pressure;Samples;Min_cycle;Max_cycle;Signal;HPM_P1;HPM_P2
2024/01/10 00:02:20;;;;;;;;;;;-3.90;99.90;;;;;;5061358;28;19927;-75
2024/01/10 00:04:45;;;;;;;;;;;-3.90;99.90;;;;;;5034761;28;20011;-76
2024/01/10 00:07:11;;;;;;;;;;;-3.90;99.90;;;;;;5051091;28;20381;-75
2024/01/10 00:09:37;;;;;;;;;;;-3.90;99.90;;;;;;5040167;28;19928;-76
2024/01/10 00:12:02;;;;;;;;;;;-3.90;99.90;;;;;;5071402;28;19923;-75
2024/01/10 00:14:28;;;;;;;;;;;-3.90;99.90;;;;;;5056836;28;20019;-75
2024/01/10 00:16:53;;;;;;;;;;;-3.90;99.90;;;;;;5051641;28;19920;-75
2024/01/10 00:19:19;;;;;;;;;;;-3.90;99.90;;;;;;5053957;28;20011;-75
2024/01/10 00:21:44;;;;;;;;;;;-3.90;99.90;;;;;;5056963;28;20149;-75
2024/01/10 00:24:10;;;;;;;;;;;-3.90;99.90;;;;;;5044043;28;19927;-75
2024/01/10 00:26:35;;;;;;;;;;;-3.90;99.90;;;;;;5052905;28;19920;-75
2024/01/10 00:29:01;;;;;;;;;;;-4.00;99.90;;;;;;5053096;28;20288;-76
2024/01/10 00:31:26;;;;;;;;;;;-4.00;99.90;;;;;;5064499;28;19925;-75
2024/01/10 00:33:52;;;;;;;;;;;-4.00;99.90;;;;;;5043430;28;19924;-74
2024/01/10 00:36:17;;;;;;;;;;;-4.00;99.90;;;;;;5045136;28;20366;-74
2024/01/10 00:38:43;;;;;;;;;;;-4.10;99.90;;;;;;5071580;28;20445;-76
2024/01/10 00:41:08;;;;;;;;;;;-4.10;99.90;;;;;;5046365;28;19925;-74
2024/01/10 00:43:34;;;;;;;;;;;-4.10;99.90;;;;;;5059755;28;20407;-74
2024/01/10 00:46:00;;;;;;;;;;;-4.10;99.90;;;;;;5046427;28;19971;-75
2024/01/10 00:48:25;;;;;;;;;;;-4.10;99.90;;;;;;5047340;28;20016;-74
2024/01/10 00:50:51;;;;;;;;;;;-4.10;99.90;;;;;;5069236;28;20429;-75
2024/01/10 00:53:16;;;;;;;;;;;-4.10;99.90;;;;;;5048850;28;20399;-74
2024/01/10 00:55:42;;;;;;;;;;;-4.20;99.90;;;;;;5053207;28;19952;-74
2024/01/10 00:58:07;;;;;;;;;;;-4.20;99.90;;;;;;5051138;28;19951;-75
2024/01/10 01:00:33;;;;;;;;;;;-4.20;99.90;;;;;;5053718;28;20384;-74
2024/01/10 01:02:58;;;;;;;;;;;-4.20;99.90;;;;;;5038321;28;19921;-74
2024/01/10 01:05:24;;;;;;;;;;;-4.20;99.90;;;;;;5036103;28;19920;-74
2024/01/10 01:07:49;;;;;;;;;;;-4.30;99.90;;;;;;5048555;28;19925;-74
2024/01/10 01:10:15;;;;;;;;;;;-4.30;99.90;;;;;;5042920;28;19987;-74
2024/01/10 01:12:40;;;;;;;;;;;-4.30;99.90;;;;;;5050785;28;19960;-73
2024/01/10 01:15:06;;;;;;;;;;;-4.30;99.90;;;;;;5037048;28;19920;-76
2024/01/10 01:17:32;;;;;;;;;;;-4.40;99.90;;;;;;5051370;28;19932;-74
2024/01/10 01:19:58;;;;;;;;;;;-3.70;99.90;;;;;;5044872;28;19928;-74
2024/01/10 01:22:23;;;;;;;;;;;-4.40;99.90;;;;;;5062578;28;20009;-74
2024/01/10 01:24:49;;;;;;;;;;;-4.50;99.90;;;;;;5070810;28;20044;-76
2024/01/10 01:27:14;;;;;;;;;;;-4.30;99.90;;;;;;5053441;28;20141;-76
2024/01/10 01:29:40;;;;;;;;;;;-4.30;99.90;;;;;;5069130;28;19986;-76
2024/01/10 01:32:05;;;;;;;;;;;-4.50;99.90;;;;;;5052186;28;19924;-76
2024/01/10 01:34:31;;;;;;;;;;;-4.60;99.90;;;;;;5053326;28;19928;-76
2024/01/10 01:36:57;;;;;;;;;;;-4.60;99.90;;;;;;5039318;28;20284;-76
2024/01/10 01:39:22;;;;;;;;;;;-4.60;99.90;;;;;;5033295;28;19921;-76
2024/01/10 01:41:48;;;;;;;;;;;-4.60;99.90;;;;;;5033110;28;19928;-76
2024/01/10 01:44:13;;;;;;;;;;;-4.60;99.90;;;;;;5050426;28;19973;-76
2024/01/10 01:46:40;;;;;;;;;;;-4.70;99.90;;;;;;5044002;28;19924;-76
2024/01/10 01:49:06;;;;;;;;;;;-4.70;99.90;;;;;;5050019;28;20303;-76
2024/01/10 01:51:33;;;;;;;;;;;-4.70;99.90;;;;;;5068651;28;19920;-76
2024/01/10 01:53:58;;;;;;;;;;;-4.70;99.90;;;;;;5051005;28;19966;-76
2024/01/10 01:56:24;;;;;;;;;;;-4.70;99.90;;;;;;5052162;28;19956;-76
2024/01/10 01:58:53;;;;;;;;;;;-4.80;99.90;;;;;;5050106;28;20019;-76
2024/01/10 02:01:22;;;;;;;;;;;-4.80;99.90;;;;;;5067052;28;19921;-76
2024/01/10 02:03:47;;;;;;;;;;;-4.80;99.90;;;;;;5052270;28;19920;-76
2024/01/10 02:06:13;;;;;;;;;;;-4.80;99.90;;;;;;5050079;28;19929;-76
2024/01/10 02:08:39;;;;;;;;;;;-4.80;99.90;;;;;;5038295;28;20161;-76
2024/01/10 02:11:04;;;;;;;;;;;-4.80;99.90;;;;;;5049569;28;20031;-76
2024/01/10 02:13:32;;;;;;;;;;;-4.80;99.90;;;;;;5066943;28;19924;-75
2024/01/10 02:15:58;;;;;;;;;;;-4.90;99.90;;;;;;5048736;28;19928;-76
2024/01/10 02:18:23;;;;;;;;;;;-4.90;99.90;;;;;;5050489;28;19997;-76
2024/01/10 02:20:49;;;;;;;;;;;-4.90;99.90;;;;;;5065411;28;19924;-76
2024/01/10 02:23:15;;;;;;;;;;;-4.90;99.90;;;;;;5050193;28;19955;-76
2024/01/10 02:25:44;;;;;;;;;;;-5.00;99.90;;;;;;5032112;28;19986;-76
2024/01/10 02:28:09;;;;;;;;;;;-5.00;99.90;;;;;;5031864;28;20292;-76
2024/01/10 02:30:35;;;;;;;;;;;-5.00;99.90;;;;;;5065515;28;19933;-75
2024/01/10 02:33:01;;;;;;;;;;;-5.00;99.90;;;;;;5074739;28;20278;-75
2024/01/10 02:35:26;;;;;;;;;;;-5.00;99.90;;;;;;5069605;28;20003;-75
2024/01/10 02:37:53;;;;;;;;;;;-5.00;99.90;;;;;;5066013;28;19947;-75
2024/01/10 02:40:19;;;;;;;;;;;-5.00;99.90;;;;;;5068379;28;20307;-75
2024/01/10 02:42:45;;;;;;;;;;;-5.00;99.90;;;;;;5068548;28;19924;-75
2024/01/10 02:45:10;;;;;;;;;;;-5.00;99.90;;;;;;5050512;28;19952;-75
2024/01/10 02:47:39;;;;;;;;;;;-5.00;99.90;;;;;;5048012;28;19921;-74
2024/01/10 02:50:05;;;;;;;;;;;-5.00;99.90;;;;;;5049808;28;19924;-74
2024/01/10 02:52:31;;;;;;;;;;;-5.10;99.90;;;;;;5050568;28;19927;-75
2024/01/10 02:54:56;;;;;;;;;;;-5.00;99.90;;;;;;5030811;28;19920;-75
2024/01/10 02:57:22;;;;;;;;;;;-5.10;99.90;;;;;;5036381;28;20376;-75
2024/01/10 02:59:47;;;;;;;;;;;-5.00;99.90;;;;;;5041086;28;19920;-76
2024/01/10 03:02:13;;;;;;;;;;;-5.10;99.90;;;;;;5049842;28;19928;-75
2024/01/10 03:04:39;;;;;;;;;;;-5.10;99.90;;;;;;5041597;28;19920;-75
2024/01/10 03:07:04;;;;;;;;;;;-5.10;99.90;;;;;;5048606;28;19971;-75
2024/01/10 03:09:30;;;;;;;;;;;-5.10;99.90;;;;;;5068051;28;20141;-74
2024/01/10 03:11:55;;;;;;;;;;;-5.10;99.90;;;;;;5053586;28;20279;-75
2024/01/10 03:14:21;;;;;;;;;;;-5.10;99.90;;;;;;5088322;28;20542;-75
2024/01/10 03:16:47;;;;;;;;;;;-5.00;99.90;;;;;;5048398;28;20292;-75
2024/01/10 03:19:13;;;;;;;;;;;-4.20;99.90;;;;;;5029937;28;19921;-76
2024/01/10 03:21:38;;;;;;;;;;;-5.10;99.90;;;;;;5039053;28;19939;-76
2024/01/10 03:24:04;;;;;;;;;;;-5.10;99.90;;;;;;5037163;28;20402;-76
2024/01/10 03:26:30;;;;;;;;;;;-5.10;99.90;;;;;;5057341;28;19934;-76
2024/01/10 03:28:55;;;;;;;;;;;-5.10;99.90;;;;;;5045574;28;19921;-75
2024/01/10 03:31:21;;;;;;;;;;;-5.10;99.90;;;;;;5048171;28;19920;-75
2024/01/10 03:33:47;;;;;;;;;;;-5.10;99.90;;;;;;5056987;28;19920;-75
2024/01/10 03:36:16;;;;;;;;;;;-5.10;99.90;;;;;;5064334;28;19921;-75
2024/01/10 03:38:42;;;;;;;;;;;-5.10;99.90;;;;;;5068699;28;19966;-76
2024/01/10 03:41:07;;;;;;;;;;;-5.10;99.90;;;;;;5057480;28;20288;-76
2024/01/10 03:43:33;;;;;;;;;;;-5.10;99.90;;;;;;5055011;28;19928;-75
2024/01/10 03:45:58;;;;;;;;;;;-5.10;99.90;;;;;;5049909;28;19942;-75
2024/01/10 03:48:24;;;;;;;;;;;-5.10;99.90;;;;;;5050678;28;19920;-75
2024/01/10 03:50:50;;;;;;;;;;;-5.10;99.90;;;;;;5040606;28;19943;-75
2024/01/10 03:53:15;;;;;;;;;;;-5.10;99.90;;;;;;5031638;28;19932;-75
2024/01/10 03:55:41;;;;;;;;;;;-5.20;99.90;;;;;;5039719;28;19935;-75
2024/01/10 03:58:06;;;;;;;;;;;-5.10;99.90;;;;;;5051583;28;20011;-75
2024/01/10 04:00:32;;;;;;;;;;;-5.20;99.90;;;;;;5031828;28;20452;-76
2024/01/10 04:02:57;;;;;;;;;;;-5.20;99.90;;;;;;5049813;28;20391;-75
2024/01/10 04:05:25;;;;;;;;;;;-5.20;99.90;;;;;;5048625;28;20352;-75
2024/01/10 04:07:51;;;;;;;;;;;-5.20;99.90;;;;;;5049403;28;19920;-75
2024/01/10 04:10:16;;;;;;;;;;;-5.20;99.90;;;;;;5053796;28;19947;-75
2024/01/10 04:12:44;;;;;;;;;;;-5.20;99.90;;;;;;5069139;28;19924;-75
2024/01/10 04:15:10;;;;;;;;;;;-5.20;99.90;;;;;;5050570;28;20005;-76
2024/01/10 04:17:36;;;;;;;;;;;-5.20;99.90;;;;;;5038453;28;19920;-76
2024/01/10 04:20:02;;;;;;;;;;;-5.20;99.90;;;;;;5051646;28;19924;-75
2024/01/10 04:22:28;;;;;;;;;;;-5.20;99.90;;;;;;5051946;28;19916;-75
2024/01/10 04:24:56;;;;;;;;;;;-5.20;99.90;;;;;;5071239;28;19969;-75
2024/01/10 04:27:21;;;;;;;;;;;-5.20;99.90;;;;;;5052839;28;19920;-75
2024/01/10 04:29:47;;;;;;;;;;;-5.20;99.90;;;;;;5052753;28;20276;-75
2024/01/10 04:32:13;;;;;;;;;;;-5.20;99.90;;;;;;5053632;28;19920;-76
2024/01/10 04:34:38;;;;;;;;;;;-5.20;99.90;;;;;;5041036;28;19959;-75
2024/01/10 04:37:04;;;;;;;;;;;-5.20;99.90;;;;;;5034503;28;19925;-75
2024/01/10 04:39:29;;;;;;;;;;;-5.20;99.90;;;;;;5052393;28;19920;-75
2024/01/10 04:41:55;;;;;;;;;;;-5.20;99.90;;;;;;5037523;28;19939;-75
2024/01/10 04:44:21;;;;;;;;;;;-5.20;99.90;;;;;;5045766;28;19962;-74
2024/01/10 04:46:46;;;;;;;;;;;-5.20;99.90;;;;;;5050532;28;20314;-75
2024/01/10 04:49:12;;;;;;;;;;;-5.20;99.90;;;;;;5070419;28;19930;-75
2024/01/10 04:51:37;;;;;;;;;;;-5.20;99.90;;;;;;5071417;28;19927;-75
2024/01/10 04:54:03;;;;;;;;;;;-5.20;99.90;;;;;;5044778;28;20454;-75
2024/01/10 04:56:29;;;;;;;;;;;-4.10;99.90;;;;;;5037513;28;20424;-75
2024/01/10 04:58:54;;;;;;;;;;;-4.90;99.90;;;;;;5069864;28;19924;-75
2024/01/10 05:01:20;;;;;;;;;;;-6.10;99.90;;;;;;5048037;28;19916;-75
2024/01/10 05:03:45;;;;;;;;;;;-5.20;99.90;;;;;;5032802;28;19978;-75
2024/01/10 05:06:11;;;;;;;;;;;-5.20;99.90;;;;;;5033580;28;19925;-76
2024/01/10 05:08:36;;;;;;;;;;;-5.20;99.90;;;;;;5052052;28;19926;-75
2024/01/10 05:11:02;;;;;;;;;;;-3.50;99.90;;;;;;5036755;28;19963;-75
2024/01/10 05:13:28;;;;;;;;;;;-4.70;99.90;;;;;;5050360;28;19920;-75
2024/01/10 05:15:54;;;;;;;;;;;-5.20;99.90;;;;;;5050856;28;19924;-75
2024/01/10 05:18:20;;;;;;;;;;;-5.20;99.90;;;;;;5041877;28;19920;-75
2024/01/10 05:20:46;;;;;;;;;;;-5.20;99.90;;;;;;5033468;28;19921;-75
2024/01/10 05:23:11;;;;;;;;;;;-5.20;99.90;;;;;;5042605;28;19927;-75
2024/01/10 05:25:37;;;;;;;;;;;-5.10;99.90;;;;;;5034328;28;19920;-75
2024/01/10 05:28:03;;;;;;;;;;;-5.20;99.90;;;;;;5068383;28;20381;-76
2024/01/10 05:30:28;;;;;;;;;;;-5.10;99.90;;;;;;5070463;28;19920;-75
2024/01/10 05:32:54;;;;;;;;;;;-5.10;99.90;;;;;;5054310;28;19916;-75
2024/01/10 05:35:19;;;;;;;;;;;-5.20;99.90;;;;;;5052892;28;19920;-75
2024/01/10 05:37:45;;;;;;;;;;;-5.20;99.90;;;;;;5069561;28;19969;-76
2024/01/10 05:40:11;;;;;;;;;;;-5.20;99.90;;;;;;5052441;28;19927;-75
2024/01/10 05:42:37;;;;;;;;;;;-5.20;99.90;;;;;;5044377;28;19927;-75
2024/01/10 05:45:04;;;;;;;;;;;-5.20;99.90;;;;;;5051991;28;19917;-75
2024/01/10 05:47:29;;;;;;;;;;;-5.20;99.90;;;;;;5052748;28;19921;-75
2024/01/10 05:49:55;;;;;;;;;;;-5.20;99.90;;;;;;5051517;28;20376;-75
2024/01/10 05:52:22;;;;;;;;;;;-5.20;99.90;;;;;;5052443;28;19920;-75
2024/01/10 05:54:48;;;;;;;;;;;-5.20;99.90;;;;;;5052364;28;19974;-74
2024/01/10 05:57:14;;;;;;;;;;;-5.20;99.90;;;;;;5046363;28;19920;-74
2024/01/10 05:59:39;;;;;;;;;;;-5.20;99.90;;;;;;5050483;28;19927;-74
2024/01/10 06:02:05;;;;;;;;;;;-5.20;99.90;;;;;;5036878;28;20649;-74
2024/01/10 06:04:31;;;;;;;;;;;-5.20;99.90;;;;;;5045069;28;20339;-75
2024/01/10 06:07:00;;;;;;;;;;;-5.20;99.90;;;;;;5050028;28;19921;-76
2024/01/10 06:09:25;;;;;;;;;;;-5.20;99.90;;;;;;5050731;28;20352;-75
2024/01/10 06:11:51;;;;;;;;;;;-5.20;99.90;;;;;;5049654;28;19920;-74
2024/01/10 06:14:17;;;;;;;;;;;-5.10;99.90;;;;;;5049263;28;20287;-75
2024/01/10 06:16:43;;;;;;;;;;;-5.20;99.90;;;;;;5051793;28;20330;-75
2024/01/10 06:19:10;;;;;;;;;;;-5.20;99.90;;;;;;5046434;28;19962;-75
2024/01/10 06:21:35;;;;;;;;;;;-5.20;99.90;;;;;;5051415;28;20027;-74
2024/01/10 06:24:01;;;;;;;;;;;-5.00;99.90;;;;;;5031624;28;19917;-75
2024/01/10 06:26:26;;;;;;;;;;;-5.20;99.90;;;;;;5031695;28;20433;-74
2024/01/10 06:28:52;;;;;;;;;;;-5.20;99.90;;;;;;5041584;28;19924;-74
2024/01/10 06:31:17;;;;;;;;;;;-5.20;99.90;;;;;;5050286;28;19920;-74
2024/01/10 06:33:43;;;;;;;;;;;-5.20;99.90;;;;;;5064417;28;19920;-74
2024/01/10 06:36:08;;;;;;;;;;;-5.20;99.90;;;;;;5068223;28;19924;-75
2024/01/10 06:38:34;;;;;;;;;;;-5.20;99.90;;;;;;5050212;28;20343;-75
2024/01/10 06:40:59;;;;;;;;;;;-5.20;99.90;;;;;;5042598;28;19921;-74
2024/01/10 06:43:25;;;;;;;;;;;-5.30;99.90;;;;;;5047856;28;20180;-73
2024/01/10 06:45:51;;;;;;;;;;;-5.20;99.90;;;;;;5051435;28;20374;-75
2024/01/10 06:48:16;;;;;;;;;;;-5.30;99.90;;;;;;5067766;28;20402;-74
2024/01/10 06:50:44;;;;;;;;;;;-4.90;99.90;;;;;;5068775;28;19920;-74
2024/01/10 06:53:09;;;;;;;;;;;-5.20;99.90;;;;;;5068035;28;20030;-75
2024/01/10 06:55:35;;;;;;;;;;;-5.30;99.90;;;;;;5069711;28;20486;-75
2024/01/10 06:58:00;;;;;;;;;;;-5.30;99.90;;;;;;5065611;28;20291;-76
2024/01/10 07:00:26;;;;;;;;;;;-5.20;99.90;;;;;;5050262;28;19927;-76
2024/01/10 07:02:51;;;;;;;;;;;-5.30;99.90;;;;;;5046658;28;20736;-76
2024/01/10 07:05:17;;;;;;;;;;;-5.30;99.90;;;;;;5049091;28;19936;-77
2024/01/10 07:07:43;;;;;;;;;;;-5.30;99.90;;;;;;5067683;28;20270;-76
2024/01/10 07:10:09;;;;;;;;;;;-5.30;99.90;;;;;;5051369;28;20371;-76
2024/01/10 07:12:34;;;;;;;;;;;-5.30;99.90;;;;;;5050269;28;19963;-75
2024/01/10 07:15:00;;;;;;;;;;;-5.30;99.90;;;;;;5049627;28;20027;-74
2024/01/10 07:17:25;;;;;;;;;;;-5.30;99.90;;;;;;5040607;28;19956;-75
2024/01/10 07:19:51;;;;;;;;;;;-5.30;99.90;;;;;;5032263;28;19921;-75
2024/01/10 07:22:18;;;;;;;;;;;-5.30;99.90;;;;;;5050242;28;20323;-76
2024/01/10 07:24:43;;;;;;;;;;;-5.30;99.90;;;;;;5049705;28;20284;-75
2024/01/10 07:27:09;;;;;;;;;;;-5.30;99.90;;;;;;5068190;28;19932;-75
2024/01/10 07:29:35;;;;;;;;;;;-5.30;99.90;;;;;;5049915;28;20195;-75
2024/01/10 07:32:00;;;;;;;;;;;-5.30;99.90;;;;;;5068041;28;19920;-76
2024/01/10 07:34:26;;;;;;;;;;;-5.30;99.90;;;;;;5069092;28;19920;-75
2024/01/10 07:36:53;;;;;;;;;;;-5.30;99.90;;;;;;5048280;28;19921;-75
2024/01/10 07:39:19;;;;;;;;;;;-5.90;99.90;;;;;;5048924;28;19924;-75
2024/01/10 07:41:45;;;;;;;;;;;-5.30;99.90;;;;;;5047234;28;19924;-75
2024/01/10 07:44:10;;;;;;;;;;;-5.20;99.90;;;;;;5051059;28;19920;-74
2024/01/10 07:46:38;;;;;;;;;;;-5.30;99.90;;;;;;5054471;28;20356;-74
2024/01/10 07:49:04;;;;;;;;;;;-5.30;99.90;;;;;;5071639;28;20415;-75
2024/01/10 07:51:30;;;;;;;;;;;-5.30;99.90;;;;;;5053322;28;19924;-74
2024/01/10 07:53:56;;;;;;;;;;;-3.70;99.90;;;;;;5071239;28;20010;-74
2024/01/10 07:56:22;;;;;;;;;;;-5.30;99.90;;;;;;5052977;28;19966;-74
2024/01/10 07:58:48;;;;;;;;;;;-5.30;99.90;;;;;;5051496;28;19931;-73
2024/01/10 08:01:14;;;;;;;;;;;-5.30;99.90;;;;;;5070927;28;19928;-74
2024/01/10 08:03:40;;;;;;;;;;;-5.30;99.90;;;;;;5051007;28;20435;-74
2024/01/10 08:06:06;;;;;;;;;;;-5.30;99.90;;;;;;5052886;28;19924;-74
2024/01/10 08:08:31;;;;;;;;;;;-5.30;99.90;;;;;;5054553;28;19920;-74
2024/01/10 08:10:57;;;;;;;;;;;-5.30;99.90;;;;;;5050972;28;19967;-74
2024/01/10 08:13:22;;;;;;;;;;;-5.30;99.90;;;;;;5060999;28;20068;-74
2024/01/10 08:15:48;;;;;;;;;;;-5.30;99.90;;;;;;5037737;28;19925;-74
2024/01/10 08:18:14;;;;;;;;;;;-4.90;99.90;;;;;;5034581;28;20471;-74
2024/01/10 08:20:40;;;;;;;;;;;-5.20;99.90;;;;;;5055253;28;19920;-74
2024/01/10 08:23:06;;;;;;;;;;;-5.20;99.90;;;;;;5049065;28;19920;-74
2024/01/10 08:25:32;;;;;;;;;;;-5.20;99.90;;;;;;5049804;28;20448;-73
2024/01/10 08:27:58;;;;;;;;;;;-5.40;99.90;;;;;;5047423;28;20023;-74
2024/01/10 08:30:24;;;;;;;;;;;-5.10;99.90;;;;;;5034574;28;19921;-73
2024/01/10 08:32:49;;;;;;;;;;;-5.10;99.90;;;;;;5063062;28;19924;-73
2024/01/10 08:35:15;;;;;;;;;;;-5.10;99.90;;;;;;5054310;28;19927;-74
2024/01/10 08:37:44;;;;;;;;;;;-5.10;99.90;;;;;;5053222;28;19972;-74
2024/01/10 08:40:15;;;;;;;;;;;-5.00;99.90;;;;;;5049853;28;19916;-74
2024/01/10 08:42:41;;;;;;;;;;;-5.00;99.90;;;;;;5052883;28;19920;-74
2024/01/10 08:45:09;;;;;;;;;;;-4.90;99.90;;;;;;5052572;28;19974;-74
2024/01/10 08:47:35;;;;;;;;;;;-4.90;99.90;;;;;;5041837;28;20442;-73
2024/01/10 08:50:01;;;;;;;;;;;-4.90;99.90;;;;;;5068183;28;19920;-74
2024/01/10 08:52:27;;;;;;;;;;;-4.80;99.90;;;;;;5070040;28;20257;-74
2024/01/10 08:54:52;;;;;;;;;;;-4.80;99.90;;;;;;5048777;28;19974;-74
2024/01/10 08:57:18;;;;;;;;;;;-4.80;99.90;;;;;;5053021;28;19974;-74
2024/01/10 08:59:44;;;;;;;;;;;-4.70;99.90;;;;;;5050438;28;20364;-74
2024/01/10 09:02:09;;;;;;;;;;;-4.70;99.90;;;;;;5062527;28;19925;-75
2024/01/10 09:04:35;;;;;;;;;;;-4.60;99.90;;;;;;5058322;28;19931;-75
2024/01/10 09:07:01;;;;;;;;;;;-4.60;99.90;;;;;;5038849;28;19920;-75
2024/01/10 09:09:26;;;;;;;;;;;-4.60;99.90;;;;;;5053438;28;20428;-75
2024/01/10 09:11:52;;;;;;;;;;;-4.50;99.90;;;;;;5045215;28;19927;-75
2024/01/10 09:14:17;;;;;;;;;;;-4.50;99.90;;;;;;5072930;28;19995;-75
2024/01/10 09:16:43;;;;;;;;;;;-4.40;99.90;;;;;;5046506;28;20037;-75
2024/01/10 09:19:09;;;;;;;;;;;-4.40;99.90;;;;;;5033258;28;19931;-75
2024/01/10 09:21:35;;;;;;;;;;;-4.30;99.90;;;;;;5067054;28;19925;-80
2024/01/10 09:24:00;;;;;;;;;;;-4.20;99.90;;;;;;5050327;28;20043;-80
2024/01/10 09:26:26;;;;;;;;;;;-4.20;99.90;;;;;;5049131;28;19967;-81
2024/01/10 09:28:51;;;;;;;;;;;-4.20;99.90;;;;;;5059664;28;20049;-80
2024/01/10 09:31:17;;;;;;;;;;;-4.10;99.90;;;;;;5044899;28;19928;-81
2024/01/10 09:33:43;;;;;;;;;;;-4.10;99.90;;;;;;5068806;28;19968;-80
2024/01/10 09:36:08;;;;;;;;;;;-4.00;99.90;;;;;;5052106;28;19994;-81
2024/01/10 09:38:37;;;;;;;;;;;-4.00;99.90;;;;;;5052945;28;19974;-80
2024/01/10 09:41:03;;;;;;;;;;;-4.00;99.90;;;;;;5033039;28;19920;-79
2024/01/10 09:43:29;;;;;;;;;;;-3.90;99.90;;;;;;5053901;28;19924;-79
2024/01/10 09:45:57;;;;;;;;;;;-3.90;99.90;;;;;;5064987;28;19920;-78
2024/01/10 09:48:22;;;;;;;;;;;-3.80;99.90;;;;;;5050202;28;19927;-78
2024/01/10 09:50:50;;;;;;;;;;;-3.70;99.90;;;;;;5052154;28;19924;-79
2024/01/10 09:53:23;;;;;;;;;;;-3.70;99.90;;;;;;5051506;28;19920;-82
2024/01/10 09:55:48;;;;;;;;;;;-3.70;99.90;;;;;;5051002;28;19963;-80
2024/01/10 09:58:14;;;;;;;;;;;-3.60;99.90;;;;;;5050670;28;19968;-80
2024/01/10 10:00:40;;;;;;;;;;;-3.60;99.90;;;;;;5048229;28;19922;-80
2024/01/10 10:03:12;;;;;;;;;;;-3.50;99.90;;;;;;5048706;28;20394;-79
2024/01/10 10:05:37;;;;;;;;;;;-3.40;99.90;;;;;;5051778;28;19986;-80
2024/01/10 10:08:06;;;;;;;;;;;-3.40;99.90;;;;;;5069853;28;20455;-80
2024/01/10 10:10:32;;;;;;;;;;;-3.40;99.90;;;;;;5051835;28;19920;-80
2024/01/10 10:12:57;;;;;;;;;;;-3.30;99.90;;;;;;5051264;28;19931;-81
2024/01/10 10:15:26;;;;;;;;;;;-3.30;99.90;;;;;;5048323;28;20391;-79
2024/01/10 10:17:53;;;;;;;;;;;-3.20;99.90;;;;;;5048846;28;19920;-79
2024/01/10 10:20:36;;;;;;;;;;;-3.10;99.90;;;;;;5067359;28;19920;-79
2024/01/10 10:23:06;;;;;;;;;;;-3.10;99.90;;;;;;5059721;28;19928;-79
2024/01/10 10:25:42;;;;;;;;;;;-3.00;99.90;;;;;;5033010;28;19920;-79
2024/01/10 10:28:08;;;;;;;;;;;-1.20;99.90;;;;;;5048835;28;19943;-80
2024/01/10 10:30:34;;;;;;;;;;;-2.80;99.90;;;;;;5055112;28;20003;-80
2024/01/10 10:33:00;;;;;;;;;;;-2.80;99.90;;;;;;5040514;28;19971;-80
2024/01/10 10:35:25;;;;;;;;;;;-2.30;99.90;;;;;;5032126;28;20259;-80
2024/01/10 10:37:52;;;;;;;;;;;-2.70;99.90;;;;;;5041475;28;19920;-80
2024/01/10 10:40:18;;;;;;;;;;;-2.60;99.90;;;;;;5037385;28;19924;-80
2024/01/10 10:42:46;;;;;;;;;;;-2.40;99.90;;;;;;5043304;28;20421;-73
2024/01/10 10:45:14;;;;;;;;;;;-1.40;99.90;;;;;;5041706;28;19924;-73
2024/01/10 10:47:43;;;;;;;;;;;-1.10;99.90;;;;;;5032904;28;19985;-73
2024/01/10 10:50:10;;;;;;;;;;;-0.40;99.90;;;;;;5044381;28;20308;-73
2024/01/10 10:52:35;;;;;;;;;;;0.50;99.90;;;;;;5051528;28;20387;-73
2024/01/10 10:55:02;;;;;;;;;;;1.50;99.90;;;;;;5049334;28;19916;-75
2024/01/10 10:57:28;;;;;;;;;;;2.40;99.90;;;;;;5045377;28;20011;-75
2024/01/10 10:59:55;;;;;;;;;;;3.50;99.90;;;;;;5040151;28;19917;-74
2024/01/10 11:02:24;;;;;;;;;;;4.70;99.90;;;;;;5044402;28;19956;-77
2024/01/10 11:04:53;;;;;;;;;;;5.90;99.90;;;;;;5050018;28;19969;-78
2024/01/10 11:07:19;;;;;;;;;;;7.10;99.90;;;;;;5050398;28;19920;-76
2024/01/10 11:09:45;;;;;;;;;;;8.60;99.90;;;;;;5050681;28;19924;-76
2024/01/10 11:12:31;;;;;;;;;;;9.00;99.90;;;;;;5057571;28;19917;-76
2024/01/10 11:15:13;;;;;;;;;;;9.40;99.90;;;;;;5046694;28;19927;-76
2024/01/10 11:17:39;;;;;;;;;;;9.60;99.90;;;;;;5060891;28;19975;-75
2024/01/10 11:20:04;;;;;;;;;;;9.40;99.90;;;;;;5043894;28;19955;-75
2024/01/10 11:22:39;;;;;;;;;;;9.00;99.90;;;;;;5045147;28;19927;-76
2024/01/10 11:25:05;;;;;;;;;;;8.40;99.90;;;;;;5033955;28;19928;-75
2024/01/10 11:27:30;;;;;;;;;;;7.30;99.90;;;;;;5041531;28;19928;-75
2024/01/10 11:29:58;;;;;;;;;;;6.20;99.90;;;;;;5065353;28;19946;-75
2024/01/10 11:32:24;;;;;;;;;;;5.30;99.90;;;;;;5046485;28;20277;-76
2024/01/10 11:34:53;;;;;;;;;;;4.50;99.90;;;;;;5045315;28;19930;-77
2024/01/10 11:37:18;;;;;;;;;;;3.70;99.90;;;;;;5045555;28;19929;-75
2024/01/10 11:39:44;;;;;;;;;;;3.00;99.90;;;;;;5050780;28;20330;-74
2024/01/10 11:42:10;;;;;;;;;;;2.50;99.90;;;;;;5039536;28;20330;-75
2024/01/10 11:44:46;;;;;;;;;;;2.10;99.90;;;;;;5043384;28;19935;-75
2024/01/10 11:47:13;;;;;;;;;;;1.80;99.90;;;;;;5044855;28;19970;-75
2024/01/10 11:49:38;;;;;;;;;;;1.50;99.90;;;;;;5057428;28;19928;-77
2024/01/10 11:52:04;;;;;;;;;;;1.30;99.90;;;;;;5045199;28;19924;-76
2024/01/10 11:54:37;;;;;;;;;;;1.20;99.90;;;;;;5049389;28;19920;-76
2024/01/10 11:57:03;;;;;;;;;;;1.10;99.90;;;;;;5030563;28;19951;-76
2024/01/10 11:59:30;;;;;;;;;;;1.00;99.90;;;;;;5036680;28;19916;-75
2024/01/10 12:01:56;;;;;;;;;;;1.00;99.90;;;;;;5047527;28;19921;-77
2024/01/10 12:04:21;;;;;;;;;;;1.60;99.90;;;;;;5050309;28;19969;-78
2024/01/10 12:06:47;;;;;;;;;;;2.50;99.90;;;;;;5051380;28;19920;-76
2024/01/10 12:09:13;;;;;;;;;;;3.80;99.90;;;;;;5066107;28;20375;-78
2024/01/10 12:11:41;;;;;;;;;;;6.20;99.90;;;;;;5049573;28;19921;-77
2024/01/10 12:14:10;;;;;;;;;;;7.20;99.90;;;;;;5062549;28;19920;-77
2024/01/10 12:16:36;;;;;;;;;;;8.80;99.90;;;;;;5048408;28;20367;-76
2024/01/10 12:19:02;;;;;;;;;;;10.30;99.90;;;;;;5048609;28;20437;-76
2024/01/10 12:21:27;;;;;;;;;;;11.70;99.90;;;;;;5050062;28;20019;-76
2024/01/10 12:23:53;;;;;;;;;;;12.80;99.90;;;;;;5044384;28;19932;-76
2024/01/10 12:26:18;;;;;;;;;;;12.90;99.60;;;;;;5047136;28;20128;-76
2024/01/10 12:28:54;;;;;;;;;;;12.60;98.30;;;;;;5035492;28;19963;-76
2024/01/10 12:31:22;;;;;;;;;;;11.70;96.40;;;;;;5046313;28;19924;-79
2024/01/10 12:33:48;;;;;;;;;;;10.60;95.80;;;;;;5054440;28;19925;-76
2024/01/10 12:36:16;;;;;;;;;;;9.80;96.00;;;;;;5045953;28;19923;-75
2024/01/10 12:38:42;;;;;;;;;;;10.00;97.20;;;;;;5052694;28;19920;-76
2024/01/10 12:41:09;;;;;;;;;;;10.30;98.20;;;;;;5036461;28;20149;-77
2024/01/10 12:43:34;;;;;;;;;;;11.30;98.60;;;;;;5053567;28;20406;-78
2024/01/10 12:46:12;;;;;;;;;;;12.30;98.20;;;;;;5068002;28;19920;-75
2024/01/10 12:48:41;;;;;;;;;;;13.00;95.60;;;;;;5072147;28;19942;-75
2024/01/10 12:51:15;;;;;;;;;;;12.40;93.40;;;;;;5053755;28;19967;-75
2024/01/10 12:53:42;;;;;;;;;;;11.20;91.80;;;;;;5047359;28;19927;-74
2024/01/10 12:56:09;;;;;;;;;;;9.80;90.90;;;;;;5051798;28;20283;-75
2024/01/10 12:58:36;;;;;;;;;;;8.60;90.40;;;;;;5050079;28;19928;-72
2024/01/10 13:01:03;;;;;;;;;;;7.50;90.40;;;;;;5047272;28;20023;-75
2024/01/10 13:03:29;;;;;;;;;;;6.70;90.40;;;;;;5076975;28;19927;-75
2024/01/10 13:05:54;;;;;;;;;;;6.20;90.40;;;;;;5056835;28;19924;-75
2024/01/10 13:08:20;;;;;;;;;;;5.20;90.60;;;;;;5053332;28;19924;-76
2024/01/10 13:10:47;;;;;;;;;;;4.30;90.70;;;;;;5052080;28;19924;-74
2024/01/10 13:13:13;;;;;;;;;;;3.70;91.10;;;;;;5054872;28;19921;-74
2024/01/10 13:15:38;;;;;;;;;;;3.30;91.60;;;;;;5050716;28;19927;-74
2024/01/10 13:18:04;;;;;;;;;;;2.70;91.90;;;;;;5048654;28;19951;-74
2024/01/10 13:20:29;;;;;;;;;;;2.50;92.50;;;;;;5050535;28;20299;-74
2024/01/10 13:22:55;;;;;;;;;;;2.20;93.00;;;;;;5045834;28;20101;-74
2024/01/10 13:25:23;;;;;;;;;;;1.90;93.30;;;;;;5039310;28;19921;-74
2024/01/10 13:27:51;;;;;;;;;;;1.70;93.90;;;;;;5049974;28;20374;-74
2024/01/10 13:30:17;;;;;;;;;;;1.50;94.10;;;;;;5052118;28;20437;-74
2024/01/10 13:32:43;;;;;;;;;;;1.30;94.30;;;;;;5052916;28;19927;-74
2024/01/10 13:35:09;;;;;;;;;;;1.10;94.50;;;;;;5050468;28;19924;-74
2024/01/10 13:37:34;;;;;;;;;;;0.90;94.70;;;;;;5051721;28;20355;-73
2024/01/10 13:40:00;;;;;;;;;;;0.70;95.10;;;;;;5047634;28;20410;-74
2024/01/10 13:42:25;;;;;;;;;;;0.60;95.50;;;;;;5053861;28;19986;-74
2024/01/10 13:44:51;;;;;;;;;;;0.50;95.80;;;;;;5065758;28;20389;-74
2024/01/10 13:47:23;;;;;;;;;;;0.60;96.30;;;;;;5048604;28;20280;-74
2024/01/10 13:49:49;;;;;;;;;;;0.30;96.80;;;;;;5035955;28;19978;-73
2024/01/10 13:52:15;;;;;;;;;;;0.20;97.20;;;;;;5051478;28;19928;-74
2024/01/10 13:54:40;;;;;;;;;;;0.10;97.60;;;;;;5044046;28;19920;-73
2024/01/10 13:57:06;;;;;;;;;;;0.10;98.00;;;;;;5048296;28;19928;-74
2024/01/10 13:59:32;;;;;;;;;;;0.00;98.40;;;;;;5042135;28;19920;-73
2024/01/10 14:01:59;;;;;;;;;;;-0.10;98.70;;;;;;5064818;28;19920;-74
2024/01/10 14:04:25;;;;;;;;;;;-0.10;99.00;;;;;;5048407;28;19950;-74
2024/01/10 14:06:50;;;;;;;;;;;-0.10;99.30;;;;;;5032962;28;19974;-75
2024/01/10 14:09:17;;;;;;;;;;;-0.20;99.50;;;;;;5041703;28;19942;-75
2024/01/10 14:11:44;;;;;;;;;;;-0.20;99.70;;;;;;5047658;28;19944;-75
2024/01/10 14:14:10;;;;;;;;;;;-0.30;99.90;;;;;;5043305;28;19921;-77